QFA11 YSSY-KLAX
Flight info
| Callsign | QFA11 |
|---|---|
| Flight time | N/A |
| Altitude | 35000 |
| Route | NOBAR A579 JORDY DCT 3035S15956E 2904S16300E 2747S16527E 2425S17028E/N0473F370 2154S17334E 1955S17547E 1702S17843E 1348S17801W 1232S17641W 0826S17229W 0819S17222W 0557S17012W/N0472F390 0500S16919W 0322S16747W 0005N16429W 0304N16140W 0610N15844W 0915N15549W 1134N15336W 1217N15255W 1601N14848W 1735N14640W 1947N14311W 2242N13801W 2450N13409W 2738N12917W 2810N12822W DCT FOOTS DCT FICKY GOATZ2 |
| Aircraft | A332/H-SDE3GHIJ2J3J5M1RVWXY/LB2D1 |
Departure
| Time | 2026-05-05 22:44 |
|---|---|
| Airport | Sydney Kingsford Smith International Airport (YSSY) |
Arrival
| Time | N/A |
|---|---|
| Airport | Los Angeles International Airport (KLAX) |
| Time | Latitude | Longitude | Altitude | Speed | Heading |
|---|---|---|---|---|---|
| 2026-05-05 22:23 | -33.93479 | 151.16793 | 34 ft | 0 kts | 258° |
| 2026-05-05 22:28 | -33.93478 | 151.16795 | 34 ft | 2 kts | 258° |
| 2026-05-05 22:29 | -33.93476 | 151.16825 | 33 ft | 4 kts | 275° |
| 2026-05-05 22:29 | -33.93478 | 151.16847 | 33 ft | 4 kts | 281° |
| 2026-05-05 22:29 | -33.93480 | 151.16876 | 32 ft | 4 kts | 242° |
| 2026-05-05 22:29 | -33.93467 | 151.16898 | 29 ft | 4 kts | 210° |
| 2026-05-05 22:30 | -33.93443 | 151.16906 | 32 ft | 4 kts | 173° |
| 2026-05-05 22:30 | -33.93436 | 151.16905 | 32 ft | 3 kts | 167° |
| 2026-05-05 22:30 | -33.93452 | 151.16909 | 32 ft | 1 kts | 167° |
| 2026-05-05 22:36 | -33.93457 | 151.16910 | 32 ft | 3 kts | 167° |
| 2026-05-05 22:37 | -33.93496 | 151.16931 | 32 ft | 7 kts | 139° |
| 2026-05-05 22:37 | -33.93507 | 151.16994 | 33 ft | 10 kts | 83° |
| 2026-05-05 22:37 | -33.93505 | 151.17074 | 33 ft | 10 kts | 111° |
| 2026-05-05 22:37 | -33.93579 | 151.17125 | 33 ft | 15 kts | 166° |
| 2026-05-05 22:38 | -33.93704 | 151.17157 | 33 ft | 21 kts | 167° |
| 2026-05-05 22:38 | -33.93860 | 151.17198 | 32 ft | 26 kts | 170° |
| 2026-05-05 22:38 | -33.94045 | 151.17243 | 33 ft | 27 kts | 168° |
| 2026-05-05 22:38 | -33.94226 | 151.17292 | 33 ft | 26 kts | 167° |
| 2026-05-05 22:39 | -33.94395 | 151.17334 | 34 ft | 24 kts | 170° |
| 2026-05-05 22:39 | -33.94553 | 151.17376 | 34 ft | 23 kts | 168° |
| 2026-05-05 22:39 | -33.94706 | 151.17416 | 34 ft | 23 kts | 167° |
| 2026-05-05 22:39 | -33.94860 | 151.17457 | 32 ft | 22 kts | 169° |
| 2026-05-05 22:40 | -33.95011 | 151.17496 | 33 ft | 23 kts | 167° |
| 2026-05-05 22:40 | -33.95183 | 151.17540 | 33 ft | 28 kts | 168° |
| 2026-05-05 22:40 | -33.95389 | 151.17589 | 33 ft | 32 kts | 171° |
| 2026-05-05 22:40 | -33.95618 | 151.17633 | 34 ft | 34 kts | 161° |
| 2026-05-05 22:41 | -33.95850 | 151.17713 | 34 ft | 34 kts | 168° |
| 2026-05-05 22:41 | -33.96073 | 151.17771 | 34 ft | 32 kts | 168° |
| 2026-05-05 22:41 | -33.96285 | 151.17825 | 34 ft | 27 kts | 167° |
| 2026-05-05 22:41 | -33.96394 | 151.17855 | 34 ft | 12 kts | 160° |
| 2026-05-05 22:42 | -33.96433 | 151.17930 | 34 ft | 11 kts | 90° |
| 2026-05-05 22:42 | -33.96421 | 151.18015 | 33 ft | 10 kts | 74° |
| 2026-05-05 22:42 | -33.96374 | 151.18053 | 33 ft | 8 kts | 3° |
| 2026-05-05 22:42 | -33.96322 | 151.18039 | 33 ft | 9 kts | 346° |
| 2026-05-05 22:43 | -33.96237 | 151.18014 | 32 ft | 17 kts | 348° |
| 2026-05-05 22:43 | -33.95983 | 151.17950 | 31 ft | 63 kts | 347° |
| 2026-05-05 22:43 | -33.95365 | 151.17789 | 33 ft | 118 kts | 348° |
| 2026-05-05 22:43 | -33.94400 | 151.17539 | 34 ft | 164 kts | 348° |
| 2026-05-05 22:44 | -33.93201 | 151.17258 | 456 ft | 177 kts | 349° |
| 2026-05-05 22:44 | -33.91989 | 151.17036 | 1266 ft | 176 kts | 352° |
| 2026-05-05 22:44 | -33.90770 | 151.16811 | 1715 ft | 179 kts | 352° |
| 2026-05-05 22:44 | -33.89530 | 151.16559 | 2020 ft | 182 kts | 352° |
| 2026-05-05 22:45 | -33.88245 | 151.16618 | 2211 ft | 192 kts | 19° |
| 2026-05-05 22:45 | -33.87120 | 151.17514 | 2347 ft | 203 kts | 54° |
| 2026-05-05 22:45 | -33.86411 | 151.19054 | 2481 ft | 220 kts | 72° |
| 2026-05-05 22:45 | -33.86027 | 151.20877 | 2867 ft | 227 kts | 82° |
| 2026-05-05 22:46 | -33.85826 | 151.22744 | 3541 ft | 223 kts | 85° |
| 2026-05-05 22:46 | -33.85682 | 151.24579 | 4125 ft | 223 kts | 86° |
| 2026-05-05 22:46 | -33.85527 | 151.26468 | 4659 ft | 226 kts | 84° |
| 2026-05-05 22:46 | -33.85342 | 151.28327 | 5204 ft | 228 kts | 83° |
| 2026-05-05 22:47 | -33.85118 | 151.30227 | 5723 ft | 231 kts | 81° |
| 2026-05-05 22:47 | -33.84864 | 151.32150 | 6265 ft | 234 kts | 80° |
| 2026-05-05 22:47 | -33.84586 | 151.34116 | 6806 ft | 237 kts | 79° |
| 2026-05-05 22:47 | -33.84302 | 151.36054 | 7297 ft | 241 kts | 79° |
| 2026-05-05 22:48 | -33.84003 | 151.38078 | 7787 ft | 245 kts | 79° |
| 2026-05-05 22:48 | -33.83705 | 151.40090 | 8289 ft | 249 kts | 79° |
| 2026-05-05 22:48 | -33.83400 | 151.42162 | 8787 ft | 254 kts | 80° |
| 2026-05-05 22:48 | -33.83090 | 151.44274 | 9274 ft | 259 kts | 80° |
| 2026-05-05 22:49 | -33.82777 | 151.46421 | 9773 ft | 263 kts | 80° |
| 2026-05-05 22:49 | -33.82458 | 151.48605 | 10280 ft | 266 kts | 80° |
| 2026-05-05 22:49 | -33.82137 | 151.50803 | 10778 ft | 268 kts | 80° |
| 2026-05-05 22:49 | -33.81813 | 151.53019 | 11267 ft | 270 kts | 80° |
| 2026-05-05 22:50 | -33.81487 | 151.55249 | 11765 ft | 272 kts | 80° |
| 2026-05-05 22:50 | -33.81158 | 151.57495 | 12236 ft | 274 kts | 80° |
| 2026-05-05 22:50 | -33.80825 | 151.59758 | 12714 ft | 276 kts | 80° |
| 2026-05-05 22:50 | -33.80490 | 151.62039 | 13195 ft | 278 kts | 80° |
| 2026-05-05 22:51 | -33.80151 | 151.64337 | 13669 ft | 281 kts | 79° |
| 2026-05-05 22:51 | -33.79808 | 151.66664 | 14094 ft | 284 kts | 79° |
| 2026-05-05 22:51 | -33.79461 | 151.69014 | 14500 ft | 287 kts | 80° |
| 2026-05-05 22:51 | -33.79111 | 151.71387 | 14924 ft | 289 kts | 80° |
| 2026-05-05 22:52 | -33.78590 | 151.73724 | 15315 ft | 291 kts | 69° |
| 2026-05-05 22:52 | -33.77806 | 151.75971 | 15733 ft | 292 kts | 65° |
| 2026-05-05 22:52 | -33.76911 | 151.78179 | 16124 ft | 295 kts | 62° |
| 2026-05-05 22:52 | -33.75945 | 151.80365 | 16523 ft | 298 kts | 60° |
| 2026-05-05 22:53 | -33.74938 | 151.82550 | 16918 ft | 301 kts | 60° |
| 2026-05-05 22:53 | -33.73908 | 151.84755 | 17317 ft | 303 kts | 60° |
| 2026-05-05 22:53 | -33.72872 | 151.86974 | 17713 ft | 306 kts | 60° |
| 2026-05-05 22:53 | -33.71830 | 151.89219 | 18106 ft | 309 kts | 60° |
| 2026-05-05 22:54 | -33.70783 | 151.91490 | 18485 ft | 312 kts | 60° |
| 2026-05-05 22:54 | -33.69733 | 151.93781 | 18812 ft | 315 kts | 60° |
| 2026-05-05 22:54 | -33.68677 | 151.96092 | 19183 ft | 316 kts | 60° |
| 2026-05-05 22:54 | -33.67618 | 151.98414 | 19529 ft | 318 kts | 60° |
| 2026-05-05 22:55 | -33.66550 | 152.00753 | 19869 ft | 320 kts | 60° |
| 2026-05-05 22:55 | -33.65476 | 152.03103 | 20212 ft | 322 kts | 60° |
| 2026-05-05 22:55 | -33.64394 | 152.05469 | 20561 ft | 324 kts | 60° |
| 2026-05-05 22:55 | -33.63305 | 152.07847 | 20905 ft | 326 kts | 60° |
| 2026-05-05 22:56 | -33.62211 | 152.10234 | 21245 ft | 328 kts | 60° |
| 2026-05-05 22:56 | -33.61110 | 152.12633 | 21577 ft | 330 kts | 60° |
| 2026-05-05 22:56 | -33.60000 | 152.15052 | 21911 ft | 332 kts | 60° |
| 2026-05-05 22:56 | -33.58883 | 152.17482 | 22229 ft | 334 kts | 59° |
| 2026-05-05 22:57 | -33.57773 | 152.19897 | 22550 ft | 336 kts | 59° |
| 2026-05-05 22:57 | -33.56642 | 152.22356 | 22866 ft | 338 kts | 59° |
| 2026-05-05 22:57 | -33.55491 | 152.24857 | 23186 ft | 340 kts | 59° |
| 2026-05-05 22:57 | -33.54358 | 152.27316 | 23490 ft | 342 kts | 59° |
| 2026-05-05 22:58 | -33.53203 | 152.29821 | 23787 ft | 344 kts | 59° |
| 2026-05-05 22:58 | -33.52042 | 152.32339 | 24039 ft | 346 kts | 59° |
| 2026-05-05 22:58 | -33.50876 | 152.34865 | 24285 ft | 348 kts | 59° |
| 2026-05-05 22:58 | -33.49701 | 152.37410 | 24536 ft | 350 kts | 59° |
| 2026-05-05 22:59 | -33.48521 | 152.39965 | 24770 ft | 351 kts | 58° |
| 2026-05-05 22:59 | -33.47333 | 152.42533 | 24990 ft | 354 kts | 58° |
| 2026-05-05 22:59 | -33.46133 | 152.45125 | 25226 ft | 356 kts | 58° |
| 2026-05-05 22:59 | -33.44930 | 152.47722 | 25487 ft | 357 kts | 58° |
| 2026-05-05 23:00 | -33.42513 | 152.52934 | 25982 ft | 360 kts | 58° |
| 2026-05-05 23:00 | -33.41293 | 152.55561 | 26221 ft | 361 kts | 58° |
| 2026-05-05 23:00 | -33.40071 | 152.58192 | 26450 ft | 363 kts | 58° |
| 2026-05-05 23:01 | -33.38844 | 152.60832 | 26688 ft | 364 kts | 58° |
| 2026-05-05 23:01 | -33.37608 | 152.63488 | 26925 ft | 365 kts | 57° |
| 2026-05-05 23:01 | -33.36370 | 152.66147 | 27151 ft | 367 kts | 57° |
| 2026-05-05 23:01 | -33.35126 | 152.68816 | 27368 ft | 368 kts | 57° |
| 2026-05-05 23:02 | -33.33876 | 152.71496 | 27585 ft | 370 kts | 57° |
| 2026-05-05 23:02 | -33.32620 | 152.74188 | 27772 ft | 372 kts | 57° |
| 2026-05-05 23:02 | -33.31355 | 152.76895 | 27927 ft | 375 kts | 57° |
| 2026-05-05 23:02 | -33.30080 | 152.79624 | 28132 ft | 376 kts | 57° |
| 2026-05-05 23:03 | -33.28803 | 152.82355 | 28355 ft | 377 kts | 57° |
| 2026-05-05 23:03 | -33.27523 | 152.85091 | 28573 ft | 378 kts | 57° |
| 2026-05-05 23:03 | -33.26236 | 152.87839 | 28791 ft | 379 kts | 56° |
| 2026-05-05 23:03 | -33.24947 | 152.90589 | 28985 ft | 380 kts | 56° |
| 2026-05-05 23:04 | -33.23652 | 152.93349 | 29175 ft | 382 kts | 56° |
| 2026-05-05 23:04 | -33.22350 | 152.96122 | 29366 ft | 383 kts | 56° |
| 2026-05-05 23:04 | -33.21044 | 152.98903 | 29543 ft | 384 kts | 56° |
| 2026-05-05 23:04 | -33.19734 | 153.01689 | 29758 ft | 386 kts | 56° |
| 2026-05-05 23:05 | -33.18418 | 153.04486 | 29939 ft | 387 kts | 56° |
| 2026-05-05 23:05 | -33.17098 | 153.07289 | 30114 ft | 388 kts | 56° |
| 2026-05-05 23:05 | -33.15769 | 153.10107 | 30238 ft | 391 kts | 56° |
| 2026-05-05 23:05 | -33.14432 | 153.12940 | 30361 ft | 393 kts | 56° |
| 2026-05-05 23:06 | -33.13089 | 153.15786 | 30515 ft | 394 kts | 56° |
| 2026-05-05 23:06 | -33.11744 | 153.18633 | 30678 ft | 394 kts | 56° |
| 2026-05-05 23:06 | -33.10396 | 153.21484 | 30841 ft | 395 kts | 55° |
| 2026-05-05 23:06 | -33.09046 | 153.24338 | 31007 ft | 395 kts | 55° |
| 2026-05-05 23:07 | -33.07709 | 153.27161 | 31155 ft | 397 kts | 55° |
| 2026-05-05 23:07 | -33.06350 | 153.30029 | 31273 ft | 398 kts | 55° |
| 2026-05-05 23:07 | -33.04987 | 153.32901 | 31425 ft | 399 kts | 55° |
| 2026-05-05 23:07 | -33.03599 | 153.35823 | 31544 ft | 400 kts | 55° |
| 2026-05-05 23:08 | -33.02244 | 153.38676 | 31683 ft | 401 kts | 55° |
| 2026-05-05 23:08 | -33.00866 | 153.41576 | 31830 ft | 402 kts | 55° |
| 2026-05-05 23:08 | -32.99485 | 153.44478 | 31954 ft | 403 kts | 55° |
| 2026-05-05 23:08 | -32.98099 | 153.47388 | 32119 ft | 403 kts | 55° |
| 2026-05-05 23:09 | -32.96697 | 153.50332 | 32258 ft | 404 kts | 55° |
| 2026-05-05 23:09 | -32.95326 | 153.53207 | 32370 ft | 405 kts | 54° |
| 2026-05-05 23:09 | -32.93929 | 153.56132 | 32483 ft | 407 kts | 54° |
| 2026-05-05 23:09 | -32.92529 | 153.59062 | 32589 ft | 408 kts | 54° |
| 2026-05-05 23:10 | -32.91122 | 153.62005 | 32719 ft | 409 kts | 54° |
| 2026-05-05 23:10 | -32.89715 | 153.64947 | 32847 ft | 410 kts | 54° |
| 2026-05-05 23:10 | -32.88304 | 153.67893 | 32951 ft | 411 kts | 54° |
| 2026-05-05 23:10 | -32.86887 | 153.70850 | 33065 ft | 412 kts | 54° |
| 2026-05-05 23:11 | -32.85465 | 153.73814 | 33190 ft | 413 kts | 54° |
| 2026-05-05 23:11 | -32.84041 | 153.76780 | 33233 ft | 414 kts | 54° |
| 2026-05-05 23:11 | -32.81168 | 153.82755 | 33393 ft | 418 kts | 54° |
| 2026-05-05 23:12 | -32.79726 | 153.85753 | 33528 ft | 418 kts | 54° |
| 2026-05-05 23:12 | -32.78282 | 153.88753 | 33638 ft | 418 kts | 54° |
| 2026-05-05 23:12 | -32.75381 | 153.94768 | 33809 ft | 421 kts | 53° |
| 2026-05-05 23:13 | -32.73923 | 153.97788 | 33918 ft | 422 kts | 53° |
| 2026-05-05 23:13 | -32.72465 | 154.00807 | 34015 ft | 422 kts | 53° |
| 2026-05-05 23:13 | -32.71001 | 154.03836 | 34122 ft | 423 kts | 53° |
| 2026-05-05 23:13 | -32.69535 | 154.06865 | 34194 ft | 424 kts | 53° |
| 2026-05-05 23:14 | -32.66586 | 154.12948 | 34278 ft | 427 kts | 53° |
| 2026-05-05 23:14 | -32.64116 | 154.18037 | 34412 ft | 428 kts | 53° |
| 2026-05-05 23:15 | -32.62129 | 154.22127 | 34555 ft | 428 kts | 53° |
| 2026-05-05 23:15 | -32.60642 | 154.25186 | 34620 ft | 429 kts | 53° |
| 2026-05-05 23:15 | -32.58158 | 154.30286 | 34730 ft | 430 kts | 53° |
| 2026-05-05 23:16 | -32.55157 | 154.36440 | 34890 ft | 431 kts | 53° |
| 2026-05-05 23:16 | -32.52146 | 154.42604 | 34982 ft | 434 kts | 53° |
| 2026-05-05 23:17 | -32.49113 | 154.48799 | 35071 ft | 436 kts | 53° |
| 2026-05-05 23:17 | -32.46065 | 154.55019 | 35162 ft | 436 kts | 53° |
| 2026-05-05 23:18 | -32.43018 | 154.61230 | 35155 ft | 436 kts | 53° |
| 2026-05-05 23:18 | -32.40002 | 154.67473 | 35155 ft | 439 kts | 57° |
| 2026-05-05 23:19 | -32.37583 | 154.74161 | 35162 ft | 444 kts | 63° |
| 2026-05-05 23:19 | -32.35370 | 154.81003 | 35153 ft | 446 kts | 64° |
| 2026-05-05 23:20 | -32.33194 | 154.87895 | 35153 ft | 449 kts | 64° |
| 2026-05-05 23:20 | -32.30999 | 154.94806 | 35160 ft | 455 kts | 63° |
| 2026-05-05 23:21 | -32.28748 | 155.01841 | 35152 ft | 460 kts | 63° |
| 2026-05-05 23:21 | -32.26464 | 155.08953 | 35155 ft | 466 kts | 63° |
| 2026-05-05 23:22 | -32.24141 | 155.16163 | 35155 ft | 472 kts | 64° |
| 2026-05-05 23:22 | -32.21787 | 155.23458 | 35154 ft | 479 kts | 64° |
| 2026-05-05 23:23 | -32.19394 | 155.30854 | 35148 ft | 485 kts | 64° |
| 2026-05-05 23:23 | -32.16970 | 155.38330 | 35148 ft | 491 kts | 64° |
| 2026-05-05 23:24 | -32.14506 | 155.45910 | 35149 ft | 498 kts | 64° |
| 2026-05-05 23:24 | -32.12008 | 155.53579 | 35151 ft | 504 kts | 64° |
| 2026-05-05 23:25 | -32.09472 | 155.61344 | 35149 ft | 511 kts | 64° |
| 2026-05-05 23:25 | -32.06899 | 155.69209 | 35149 ft | 517 kts | 64° |
| 2026-05-05 23:26 | -32.04291 | 155.77159 | 35131 ft | 523 kts | 64° |
| 2026-05-05 23:26 | -32.01663 | 155.85155 | 35147 ft | 523 kts | 64° |
| 2026-05-05 23:27 | -31.99027 | 155.93148 | 35142 ft | 523 kts | 64° |
| 2026-05-05 23:27 | -31.96390 | 156.01121 | 35146 ft | 522 kts | 64° |
| 2026-05-05 23:28 | -31.93746 | 156.09090 | 35145 ft | 522 kts | 64° |
| 2026-05-05 23:28 | -31.91097 | 156.17054 | 35143 ft | 522 kts | 64° |
| 2026-05-05 23:29 | -31.88445 | 156.25006 | 35136 ft | 522 kts | 64° |
| 2026-05-05 23:29 | -31.85786 | 156.32962 | 35146 ft | 522 kts | 64° |
| 2026-05-05 23:30 | -31.83142 | 156.40851 | 35141 ft | 522 kts | 64° |
| 2026-05-05 23:30 | -31.80459 | 156.48841 | 35144 ft | 522 kts | 63° |
| 2026-05-05 23:31 | -31.77788 | 156.56772 | 35139 ft | 522 kts | 63° |
| 2026-05-05 23:31 | -31.75129 | 156.64651 | 35138 ft | 522 kts | 64° |
| 2026-05-05 23:32 | -31.72449 | 156.72571 | 35135 ft | 522 kts | 64° |
| 2026-05-05 23:32 | -31.69758 | 156.80504 | 35135 ft | 523 kts | 63° |
| 2026-05-05 23:33 | -31.67064 | 156.88428 | 35135 ft | 523 kts | 63° |
| 2026-05-05 23:33 | -31.64362 | 156.96360 | 35132 ft | 523 kts | 64° |
| 2026-05-05 23:34 | -31.61655 | 157.04284 | 35129 ft | 523 kts | 64° |
| 2026-05-05 23:34 | -31.58940 | 157.12214 | 35129 ft | 523 kts | 63° |
| 2026-05-05 23:35 | -31.56224 | 157.20129 | 35104 ft | 523 kts | 63° |
| 2026-05-05 23:35 | -31.53498 | 157.28050 | 35126 ft | 524 kts | 63° |
| 2026-05-05 23:36 | -31.50764 | 157.35976 | 35124 ft | 524 kts | 63° |
| 2026-05-05 23:36 | -31.48029 | 157.43890 | 35122 ft | 524 kts | 63° |
| 2026-05-05 23:37 | -31.45286 | 157.51808 | 35122 ft | 524 kts | 63° |
| 2026-05-05 23:37 | -31.42544 | 157.59707 | 35116 ft | 523 kts | 63° |
| 2026-05-05 23:38 | -31.39805 | 157.67574 | 35114 ft | 522 kts | 63° |
| 2026-05-05 23:38 | -31.37061 | 157.75436 | 35116 ft | 522 kts | 63° |
| 2026-05-05 23:39 | -31.34330 | 157.83240 | 35113 ft | 522 kts | 63° |
| 2026-05-05 23:39 | -31.31580 | 157.91085 | 35108 ft | 521 kts | 63° |
| 2026-05-05 23:40 | -31.28827 | 157.98925 | 35106 ft | 521 kts | 63° |
| 2026-05-05 23:40 | -31.26071 | 158.06748 | 35101 ft | 521 kts | 63° |
| 2026-05-05 23:41 | -31.23311 | 158.14566 | 35107 ft | 521 kts | 63° |
| 2026-05-05 23:41 | -31.20544 | 158.22388 | 35095 ft | 521 kts | 63° |
| 2026-05-05 23:42 | -31.17775 | 158.30196 | 35105 ft | 520 kts | 63° |
| 2026-05-05 23:42 | -31.15001 | 158.38001 | 35106 ft | 520 kts | 63° |
| 2026-05-05 23:43 | -31.12226 | 158.45792 | 35101 ft | 520 kts | 63° |
| 2026-05-05 23:43 | -31.09443 | 158.53584 | 35102 ft | 520 kts | 63° |
| 2026-05-05 23:44 | -31.06656 | 158.61372 | 35100 ft | 520 kts | 63° |
| 2026-05-05 23:44 | -31.03866 | 158.69151 | 35099 ft | 521 kts | 62° |
| 2026-05-05 23:45 | -31.01081 | 158.76898 | 35099 ft | 522 kts | 62° |
| 2026-05-05 23:45 | -30.98273 | 158.84692 | 35100 ft | 522 kts | 62° |
| 2026-05-05 23:46 | -30.95458 | 158.92490 | 35097 ft | 522 kts | 62° |
| 2026-05-05 23:46 | -30.92639 | 159.00279 | 35097 ft | 522 kts | 62° |
| 2026-05-05 23:47 | -30.89813 | 159.08071 | 35094 ft | 522 kts | 62° |
| 2026-05-05 23:47 | -30.86985 | 159.15850 | 35088 ft | 523 kts | 62° |
| 2026-05-05 23:48 | -30.84138 | 159.23658 | 35093 ft | 525 kts | 62° |
| 2026-05-05 23:48 | -30.81279 | 159.31488 | 35094 ft | 526 kts | 62° |
| 2026-05-05 23:49 | -30.78417 | 159.39309 | 35091 ft | 526 kts | 62° |
| 2026-05-05 23:49 | -30.75548 | 159.47133 | 35091 ft | 526 kts | 62° |
| 2026-05-05 23:50 | -30.72674 | 159.54951 | 35085 ft | 526 kts | 62° |
| 2026-05-05 23:50 | -30.69798 | 159.62757 | 35065 ft | 526 kts | 62° |
| 2026-05-05 23:51 | -30.66910 | 159.70576 | 35091 ft | 527 kts | 62° |
| 2026-05-05 23:51 | -30.64015 | 159.78397 | 35088 ft | 527 kts | 62° |
| 2026-05-05 23:52 | -30.61113 | 159.86224 | 35093 ft | 528 kts | 62° |
| 2026-05-05 23:52 | -30.58088 | 159.93953 | 35098 ft | 524 kts | 57° |
| 2026-05-05 23:53 | -30.54666 | 160.01399 | 35089 ft | 522 kts | 56° |
| 2026-05-05 23:53 | -30.51159 | 160.08758 | 35085 ft | 521 kts | 55° |
| 2026-05-05 23:54 | -30.47625 | 160.16111 | 35088 ft | 522 kts | 55° |
| 2026-05-05 23:54 | -30.44095 | 160.23459 | 35080 ft | 522 kts | 55° |
| 2026-05-05 23:55 | -30.40565 | 160.30815 | 35089 ft | 522 kts | 55° |
| 2026-05-05 23:55 | -30.37056 | 160.38117 | 35088 ft | 522 kts | 55° |
| 2026-05-05 23:56 | -30.33501 | 160.45500 | 35088 ft | 522 kts | 55° |
| 2026-05-05 23:56 | -30.29984 | 160.52788 | 35073 ft | 522 kts | 54° |
| 2026-05-05 23:57 | -30.26434 | 160.60132 | 35089 ft | 523 kts | 54° |
| 2026-05-05 23:57 | -30.22877 | 160.67477 | 35089 ft | 524 kts | 54° |
| 2026-05-05 23:58 | -30.19311 | 160.74828 | 35089 ft | 524 kts | 54° |
| 2026-05-05 23:58 | -30.15745 | 160.82167 | 35089 ft | 524 kts | 54° |
| 2026-05-05 23:59 | -30.12171 | 160.89505 | 35080 ft | 524 kts | 54° |
| 2026-05-05 23:59 | -30.08590 | 160.96844 | 35090 ft | 525 kts | 54° |
| 2026-05-06 00:00 | -30.04999 | 161.04188 | 35091 ft | 526 kts | 54° |
| 2026-05-06 00:00 | -30.01404 | 161.11531 | 35088 ft | 526 kts | 54° |
| 2026-05-06 00:01 | -29.97801 | 161.18875 | 35090 ft | 526 kts | 54° |
| 2026-05-06 00:01 | -29.94195 | 161.26213 | 35090 ft | 526 kts | 54° |
| 2026-05-06 00:02 | -29.90580 | 161.33553 | 35094 ft | 526 kts | 54° |
| 2026-05-06 00:02 | -29.86963 | 161.40884 | 35093 ft | 526 kts | 54° |
| 2026-05-06 00:03 | -29.83342 | 161.48210 | 35093 ft | 526 kts | 55° |
| 2026-05-06 00:03 | -29.80331 | 161.54292 | 35094 ft | 526 kts | 54° |
| 2026-05-06 00:04 | -29.76703 | 161.61608 | 35093 ft | 526 kts | 55° |
| 2026-05-06 00:04 | -29.73077 | 161.68906 | 35097 ft | 526 kts | 55° |
| 2026-05-06 00:05 | -29.67626 | 161.79854 | 35085 ft | 526 kts | 55° |
| 2026-05-06 00:06 | -29.64001 | 161.87119 | 35094 ft | 523 kts | 55° |
| 2026-05-06 00:06 | -29.60383 | 161.94357 | 35094 ft | 522 kts | 54° |
| 2026-05-06 00:07 | -29.56176 | 162.02750 | 35098 ft | 521 kts | 54° |
| 2026-05-06 00:07 | -29.53142 | 162.08793 | 35097 ft | 521 kts | 54° |
| 2026-05-06 00:08 | -29.49516 | 162.16006 | 35092 ft | 521 kts | 54° |
| 2026-05-06 00:08 | -29.45889 | 162.23206 | 35097 ft | 521 kts | 54° |
| 2026-05-06 00:09 | -29.42256 | 162.30409 | 35106 ft | 521 kts | 54° |
| 2026-05-06 00:09 | -29.38624 | 162.37597 | 35104 ft | 521 kts | 54° |
| 2026-05-06 00:10 | -29.34992 | 162.44771 | 35104 ft | 520 kts | 54° |
| 2026-05-06 00:10 | -29.31355 | 162.51941 | 35105 ft | 520 kts | 54° |
| 2026-05-06 00:11 | -29.27711 | 162.59112 | 35105 ft | 520 kts | 54° |
| 2026-05-06 00:11 | -29.24063 | 162.66276 | 35098 ft | 522 kts | 54° |
| 2026-05-06 00:12 | -29.20434 | 162.73397 | 35109 ft | 520 kts | 54° |
| 2026-05-06 00:12 | -29.16783 | 162.80548 | 35111 ft | 520 kts | 54° |
| 2026-05-06 00:13 | -29.13131 | 162.87684 | 35110 ft | 520 kts | 54° |
| 2026-05-06 00:13 | -29.09475 | 162.94816 | 35110 ft | 520 kts | 54° |
| 2026-05-06 00:14 | -29.05814 | 163.01955 | 35116 ft | 521 kts | 54° |
| 2026-05-06 00:14 | -29.02167 | 163.09108 | 35092 ft | 521 kts | 55° |
| 2026-05-06 00:15 | -28.98537 | 163.16237 | 35116 ft | 518 kts | 55° |
| 2026-05-06 00:15 | -28.94904 | 163.23352 | 35120 ft | 518 kts | 55° |
| 2026-05-06 00:16 | -28.91270 | 163.30451 | 35112 ft | 518 kts | 55° |
| 2026-05-06 00:16 | -28.87623 | 163.37564 | 35115 ft | 520 kts | 55° |
| 2026-05-06 00:17 | -28.83965 | 163.44685 | 35114 ft | 520 kts | 55° |
| 2026-05-06 00:17 | -28.80306 | 163.51795 | 35121 ft | 520 kts | 55° |
| 2026-05-06 00:18 | -28.76638 | 163.58910 | 35125 ft | 521 kts | 56° |
| 2026-05-06 00:18 | -28.72963 | 163.66029 | 35124 ft | 521 kts | 56° |
| 2026-05-06 00:19 | -28.69286 | 163.73139 | 35119 ft | 521 kts | 55° |
| 2026-05-06 00:19 | -28.65601 | 163.80253 | 35118 ft | 521 kts | 55° |
| 2026-05-06 00:20 | -28.61917 | 163.87353 | 35121 ft | 521 kts | 55° |
| 2026-05-06 00:20 | -28.58225 | 163.94454 | 35118 ft | 521 kts | 55° |
| 2026-05-06 00:21 | -28.54527 | 164.01554 | 35128 ft | 524 kts | 56° |
| 2026-05-06 00:21 | -28.50807 | 164.08684 | 35124 ft | 525 kts | 56° |
| 2026-05-06 00:22 | -28.47078 | 164.15822 | 35123 ft | 525 kts | 56° |
| 2026-05-06 00:22 | -28.43370 | 164.22907 | 35124 ft | 525 kts | 56° |
| 2026-05-06 00:23 | -28.39613 | 164.30075 | 35124 ft | 525 kts | 56° |
| 2026-05-06 00:23 | -28.35873 | 164.37196 | 35127 ft | 525 kts | 56° |
| 2026-05-06 00:24 | -28.32140 | 164.44292 | 35123 ft | 525 kts | 56° |
| 2026-05-06 00:24 | -28.28391 | 164.51402 | 35126 ft | 530 kts | 56° |
| 2026-05-06 00:25 | -28.24601 | 164.58584 | 35123 ft | 530 kts | 56° |
| 2026-05-06 00:25 | -28.20811 | 164.65755 | 35131 ft | 530 kts | 56° |
| 2026-05-06 00:26 | -28.17013 | 164.72927 | 35133 ft | 530 kts | 56° |
| 2026-05-06 00:26 | -28.13229 | 164.80063 | 35129 ft | 527 kts | 56° |
| 2026-05-06 00:27 | -28.09446 | 164.87180 | 35121 ft | 528 kts | 56° |
| 2026-05-06 00:27 | -28.05630 | 164.94341 | 35130 ft | 534 kts | 56° |
| 2026-05-06 00:28 | -28.01788 | 165.01545 | 35128 ft | 534 kts | 56° |
| 2026-05-06 00:28 | -27.97944 | 165.08746 | 35130 ft | 534 kts | 56° |
| 2026-05-06 00:29 | -27.94103 | 165.15926 | 35133 ft | 533 kts | 56° |
| 2026-05-06 00:29 | -27.90259 | 165.23101 | 35135 ft | 533 kts | 56° |
| 2026-05-06 00:30 | -27.86411 | 165.30269 | 35114 ft | 533 kts | 56° |
| 2026-05-06 00:30 | -27.82553 | 165.37441 | 35135 ft | 535 kts | 56° |